createdAt,value
2023-11-30T00:00:42.391Z,4.97
2023-11-30T00:03:12.909Z,4.37
2023-11-30T00:05:42.044Z,5.00
2023-11-30T00:08:11.433Z,5.20
2023-11-30T00:10:40.509Z,5.47
2023-11-30T00:13:09.567Z,5.30
2023-11-30T00:15:38.633Z,5.10
2023-11-30T00:18:09.033Z,5.20
2023-11-30T00:20:39.503Z,4.37
2023-11-30T00:23:08.480Z,5.00
2023-11-30T00:25:37.529Z,4.43
2023-11-30T00:28:06.790Z,4.20
2023-11-30T00:30:35.861Z,3.77
2023-11-30T00:33:05.848Z,3.90
2023-11-30T00:35:34.941Z,3.80
2023-11-30T00:38:05.390Z,4.70
2023-11-30T00:40:35.258Z,5.87
2023-11-30T00:43:04.789Z,4.77
2023-11-30T00:45:34.013Z,4.97
2023-11-30T00:48:03.162Z,4.50
2023-11-30T00:50:32.242Z,4.90
2023-11-30T00:53:01.333Z,4.53
2023-11-30T00:55:31.744Z,3.87
2023-11-30T00:58:00.793Z,4.23
2023-11-30T01:00:29.845Z,3.90
2023-11-30T01:02:59.704Z,4.40
2023-11-30T01:05:28.755Z,4.73
2023-11-30T01:07:57.838Z,4.00
2023-11-30T01:10:26.843Z,3.57
2023-11-30T01:12:57.361Z,3.60
2023-11-30T01:15:26.634Z,3.43
2023-11-30T01:17:55.973Z,3.40
2023-11-30T01:20:25.270Z,3.27
2023-11-30T01:22:54.405Z,3.70
2023-11-30T01:25:24.179Z,3.70
2023-11-30T01:27:53.254Z,3.90
2023-11-30T01:30:23.890Z,4.17
2023-11-30T01:32:52.975Z,4.00
2023-11-30T01:35:22.036Z,3.70
2023-11-30T01:37:51.064Z,4.27
2023-11-30T01:40:20.143Z,5.50
2023-11-30T01:42:49.177Z,4.37
2023-11-30T01:45:18.546Z,3.80
2023-11-30T01:47:49.872Z,3.80
2023-11-30T01:50:19.680Z,3.97
2023-11-30T01:52:48.880Z,3.67
2023-11-30T01:55:19.226Z,4.00
2023-11-30T01:57:48.343Z,5.10
2023-11-30T02:00:19.010Z,5.20
2023-11-30T02:02:51.719Z,6.70
2023-11-30T02:05:21.935Z,5.70
2023-11-30T02:07:51.059Z,5.27
2023-11-30T02:10:21.080Z,5.23
2023-11-30T02:12:52.239Z,5.17
2023-11-30T02:15:21.480Z,5.13
2023-11-30T02:17:52.137Z,4.87
2023-11-30T02:20:21.240Z,3.23
2023-11-30T02:22:51.698Z,3.43
2023-11-30T02:25:20.811Z,3.70
2023-11-30T02:27:50.223Z,3.70
2023-11-30T02:30:19.314Z,3.90
2023-11-30T02:32:48.421Z,2.60
2023-11-30T02:35:18.320Z,2.77
2023-11-30T02:37:47.385Z,3.53
2023-11-30T02:40:17.985Z,3.60
2023-11-30T02:42:47.025Z,3.40
2023-11-30T02:45:16.298Z,2.60
2023-11-30T02:47:45.365Z,3.47
2023-11-30T02:50:14.610Z,3.27
2023-11-30T02:52:43.668Z,2.93
2023-11-30T02:55:12.718Z,3.10
2023-11-30T02:57:43.481Z,4.03
2023-11-30T03:00:13.494Z,3.50
2023-11-30T03:02:43.002Z,5.20
2023-11-30T03:05:12.388Z,5.47
2023-11-30T03:07:41.482Z,6.50
2023-11-30T03:10:11.228Z,4.67
2023-11-30T03:12:40.257Z,5.60
2023-11-30T03:15:14.174Z,3.90
2023-11-30T03:17:43.283Z,5.13
2023-11-30T03:20:13.637Z,4.53
2023-11-30T03:22:42.693Z,3.73
2023-11-30T03:25:11.768Z,3.90
2023-11-30T03:27:42.138Z,2.97
2023-11-30T03:30:13.802Z,3.00
2023-11-30T03:32:42.960Z,3.73
2023-11-30T03:35:12.013Z,3.20
2023-11-30T03:37:43.996Z,3.67
2023-11-30T03:40:14.057Z,3.27
2023-11-30T03:42:43.130Z,3.17
2023-11-30T03:45:13.612Z,4.30
2023-11-30T03:47:42.798Z,3.83
2023-11-30T03:50:12.802Z,4.57
2023-11-30T03:52:41.969Z,4.83
2023-11-30T03:55:11.371Z,4.30
2023-11-30T03:57:40.501Z,3.53
2023-11-30T04:00:14.169Z,3.33
2023-11-30T04:02:45.086Z,3.40
2023-11-30T04:05:14.633Z,3.30
2023-11-30T04:07:44.630Z,3.27
2023-11-30T04:10:14.809Z,3.47
2023-11-30T04:12:43.989Z,3.50
2023-11-30T04:15:13.088Z,3.40
2023-11-30T04:17:42.210Z,3.30
2023-11-30T04:20:13.574Z,3.40
2023-11-30T04:22:42.682Z,4.23
2023-11-30T04:25:11.878Z,3.83
2023-11-30T04:27:42.538Z,3.77
2023-11-30T04:30:12.333Z,5.17
2023-11-30T04:32:42.044Z,3.17
2023-11-30T04:35:12.752Z,5.83
2023-11-30T04:37:41.892Z,4.63
2023-11-30T04:40:13.725Z,5.03
2023-11-30T04:42:42.942Z,4.50
2023-11-30T04:45:12.288Z,4.70
2023-11-30T04:47:41.624Z,3.97
2023-11-30T04:50:12.436Z,2.90
2023-11-30T04:52:41.547Z,2.80
2023-11-30T04:55:11.155Z,2.83
2023-11-30T04:57:40.205Z,2.57
2023-11-30T05:00:10.797Z,2.43
2023-11-30T05:02:40.440Z,2.47
2023-11-30T05:05:09.664Z,2.60
2023-11-30T05:07:40.321Z,3.10
2023-11-30T05:10:09.938Z,2.80
2023-11-30T05:12:39.129Z,3.87
2023-11-30T05:15:09.055Z,3.10
2023-11-30T05:17:38.410Z,3.13
2023-11-30T05:20:09.415Z,3.70
2023-11-30T05:22:39.908Z,3.93
2023-11-30T05:25:11.101Z,4.37
2023-11-30T05:27:40.145Z,3.47
2023-11-30T05:30:10.563Z,3.43
2023-11-30T05:32:39.723Z,3.47
2023-11-30T05:35:09.633Z,3.27
2023-11-30T05:37:39.989Z,3.03
2023-11-30T05:40:10.549Z,2.77
2023-11-30T05:42:40.035Z,2.93
2023-11-30T05:45:09.707Z,3.03
2023-11-30T05:47:38.939Z,2.87
2023-11-30T05:50:08.942Z,3.93
2023-11-30T05:52:39.429Z,4.20
2023-11-30T05:55:09.726Z,3.33
2023-11-30T05:57:39.211Z,3.47
2023-11-30T06:00:11.724Z,3.43
2023-11-30T06:02:43.587Z,3.50
2023-11-30T06:05:12.823Z,3.17
2023-11-30T06:07:46.012Z,3.57
2023-11-30T06:10:16.254Z,3.70
2023-11-30T06:12:45.384Z,3.10
2023-11-30T06:15:14.610Z,3.77
2023-11-30T06:17:43.754Z,3.90
2023-11-30T06:20:13.763Z,3.80
2023-11-30T06:22:44.373Z,3.77
2023-11-30T06:25:12.413Z,3.37
2023-11-30T06:27:41.722Z,2.73
2023-11-30T06:30:11.211Z,3.00
2023-11-30T06:32:40.384Z,3.17
2023-11-30T06:35:10.248Z,3.33
2023-11-30T06:37:39.310Z,4.77
2023-11-30T06:40:11.969Z,4.87
2023-11-30T06:42:41.136Z,4.10
2023-11-30T06:45:11.143Z,4.07
2023-11-30T06:47:40.424Z,4.23
2023-11-30T06:50:12.273Z,4.77
2023-11-30T06:52:41.312Z,4.93
2023-11-30T06:55:12.318Z,8.83
2023-11-30T06:57:41.766Z,5.67
2023-11-30T07:00:12.506Z,4.73
2023-11-30T07:02:42.726Z,3.80
2023-11-30T07:05:12.469Z,4.13
2023-11-30T07:07:41.885Z,4.03
2023-11-30T07:10:14.236Z,4.30
2023-11-30T07:12:46.996Z,4.33
2023-11-30T07:15:16.587Z,4.43
2023-11-30T07:17:46.096Z,4.67
2023-11-30T07:20:15.757Z,4.43
2023-11-30T07:22:46.256Z,5.07
2023-11-30T07:25:17.216Z,5.33
2023-11-30T07:27:46.954Z,5.03
2023-11-30T07:30:17.007Z,4.50
2023-11-30T07:32:46.333Z,6.00
2023-11-30T07:35:18.101Z,5.23
2023-11-30T07:37:47.475Z,4.53
2023-11-30T07:40:22.948Z,4.20
2023-11-30T07:42:52.405Z,3.50
2023-11-30T07:45:22.406Z,4.20
2023-11-30T07:47:52.198Z,3.80
2023-11-30T07:50:21.921Z,4.03
2023-11-30T07:52:51.245Z,4.07
2023-11-30T07:55:22.528Z,8.60
2023-11-30T07:57:52.386Z,5.37
2023-11-30T08:00:25.285Z,4.93
2023-11-30T08:02:56.011Z,4.13
2023-11-30T08:05:26.357Z,3.70
2023-11-30T08:07:56.175Z,4.07
2023-11-30T08:10:27.610Z,5.30
2023-11-30T08:12:57.716Z,6.70
2023-11-30T08:15:27.348Z,6.83
2023-11-30T08:17:56.715Z,4.77
2023-11-30T08:20:26.120Z,4.73
2023-11-30T08:22:56.207Z,3.90
2023-11-30T08:25:27.383Z,4.30
2023-11-30T08:27:56.817Z,5.03
2023-11-30T08:30:27.455Z,4.80
2023-11-30T08:32:57.976Z,4.87
2023-11-30T08:35:28.901Z,7.30
2023-11-30T08:37:58.265Z,6.10
2023-11-30T08:40:29.221Z,5.43
2023-11-30T08:42:58.707Z,4.13
2023-11-30T08:45:28.644Z,4.87
2023-11-30T08:47:57.927Z,4.17
2023-11-30T08:50:27.057Z,3.43
2023-11-30T08:52:56.644Z,2.70
2023-11-30T08:55:25.906Z,2.90
2023-11-30T08:57:56.988Z,3.93
2023-11-30T09:00:27.088Z,3.43
2023-11-30T09:02:57.667Z,4.40
2023-11-30T09:05:27.493Z,3.60
2023-11-30T09:07:56.662Z,3.80
2023-11-30T09:10:25.958Z,4.03
2023-11-30T09:12:56.394Z,3.53
2023-11-30T09:15:25.673Z,3.07
2023-11-30T09:17:57.832Z,2.70
2023-11-30T09:20:26.993Z,2.93
2023-11-30T09:22:56.110Z,2.63
2023-11-30T09:25:25.457Z,3.00
2023-11-30T09:27:55.892Z,4.30
2023-11-30T09:30:25.086Z,3.77
2023-11-30T09:32:54.878Z,2.87
2023-11-30T09:35:25.580Z,2.40
2023-11-30T09:40:24.040Z,2.97
